createdAt,value
2017-10-11T00:01:36.923Z,6.32
2017-10-11T00:04:05.084Z,7.45
2017-10-11T00:06:33.542Z,8.10
2017-10-11T00:09:01.050Z,6.95
2017-10-11T00:11:28.542Z,6.30
2017-10-11T00:13:56.030Z,8.95
2017-10-11T00:16:23.540Z,6.30
2017-10-11T00:18:51.031Z,6.87
2017-10-11T00:21:20.495Z,7.68
2017-10-11T00:23:47.983Z,7.65
2017-10-11T00:26:15.472Z,7.68
2017-10-11T00:28:43.018Z,8.60
2017-10-11T00:31:10.516Z,8.95
2017-10-11T00:33:38.419Z,7.07
2017-10-11T00:38:39.942Z,8.15
2017-10-11T00:41:07.822Z,5.53
2017-10-11T00:43:35.299Z,6.50
2017-10-11T00:46:04.778Z,5.55
2017-10-11T00:48:32.686Z,6.82
2017-10-11T00:51:00.194Z,6.35
2017-10-11T00:53:29.030Z,6.90
2017-10-11T00:55:56.520Z,6.65
2017-10-11T00:58:24.028Z,7.62
2017-10-11T01:00:51.518Z,5.35
2017-10-11T01:03:19.039Z,6.15
2017-10-11T01:05:47.466Z,6.97
2017-10-11T01:08:14.949Z,6.10
2017-10-11T01:10:44.401Z,8.50
2017-10-11T01:13:12.715Z,7.50
2017-10-11T01:15:40.218Z,6.95
2017-10-11T01:18:07.714Z,5.68
2017-10-11T01:20:35.194Z,6.43
2017-10-11T01:23:02.748Z,6.43
2017-10-11T01:25:30.257Z,11.43
2017-10-11T01:27:58.691Z,5.53
2017-10-11T01:30:27.299Z,5.72
2017-10-11T01:32:55.176Z,5.95
2017-10-11T01:35:22.698Z,5.72
2017-10-11T01:37:50.184Z,5.68
2017-10-11T01:40:17.711Z,6.05
2017-10-11T01:42:45.195Z,7.93
2017-10-11T01:45:12.720Z,5.00
2017-10-11T01:47:40.207Z,5.70
2017-10-11T01:50:08.103Z,6.50
2017-10-11T01:52:35.587Z,5.70
2017-10-11T01:55:08.679Z,5.90
2017-10-11T01:57:36.164Z,6.72
2017-10-11T02:00:03.663Z,5.20
2017-10-11T02:02:31.156Z,6.32
2017-10-11T02:04:58.669Z,5.72
2017-10-11T02:07:26.187Z,6.87
2017-10-11T02:09:53.699Z,6.10
2017-10-11T02:12:22.092Z,5.93
2017-10-11T02:14:49.591Z,5.80
2017-10-11T02:17:17.085Z,5.18
2017-10-11T02:19:44.592Z,8.75
2017-10-11T02:22:12.082Z,5.95
2017-10-11T02:24:39.979Z,6.43
2017-10-11T02:27:07.517Z,10.52
2017-10-11T02:29:35.424Z,5.87
2017-10-11T02:32:02.954Z,7.30
2017-10-11T02:34:30.467Z,6.53
2017-10-11T02:36:58.912Z,6.72
2017-10-11T02:39:26.415Z,5.62
2017-10-11T02:41:53.911Z,6.18
2017-10-11T02:44:21.440Z,7.40
2017-10-11T02:46:48.926Z,7.28
2017-10-11T02:49:16.439Z,5.87
2017-10-11T02:51:43.933Z,7.55
2017-10-11T02:54:11.444Z,6.90
2017-10-11T02:56:38.940Z,7.35
2017-10-11T02:59:07.785Z,8.90
2017-10-11T03:01:35.301Z,7.22
2017-10-11T03:04:03.769Z,7.72
2017-10-11T03:06:32.606Z,9.50
2017-10-11T03:09:00.111Z,7.97
2017-10-11T03:11:28.931Z,6.67
2017-10-11T03:13:56.428Z,7.47
2017-10-11T03:16:23.930Z,6.60
2017-10-11T03:18:51.821Z,7.57
2017-10-11T03:21:19.344Z,8.30
2017-10-11T03:23:47.295Z,9.13
2017-10-11T03:26:14.794Z,6.85
2017-10-11T03:28:44.284Z,7.87
2017-10-11T03:31:12.178Z,8.55
2017-10-11T03:33:39.692Z,7.50
2017-10-11T03:36:07.171Z,8.00
2017-10-11T03:38:35.052Z,7.50
2017-10-11T03:41:02.563Z,7.90
2017-10-11T03:43:30.055Z,8.77
2017-10-11T03:45:57.963Z,9.57
2017-10-11T03:48:25.475Z,9.30
2017-10-11T03:50:54.343Z,8.60
2017-10-11T03:53:23.105Z,13.73
2017-10-11T03:55:50.593Z,8.15
2017-10-11T03:58:18.247Z,9.38
2017-10-11T04:00:45.763Z,9.20
2017-10-11T04:03:13.282Z,9.82
2017-10-11T04:05:43.136Z,14.85
2017-10-11T04:08:10.655Z,11.32
2017-10-11T04:10:38.635Z,8.93
2017-10-11T04:13:06.530Z,8.82
2017-10-11T04:15:34.023Z,10.15
2017-10-11T04:18:01.539Z,8.77
2017-10-11T04:20:29.023Z,14.35
2017-10-11T04:22:56.535Z,7.78
2017-10-11T04:25:24.030Z,7.70
2017-10-11T04:27:51.532Z,8.82
2017-10-11T04:30:19.020Z,7.40
2017-10-11T04:32:46.532Z,7.55
2017-10-11T04:35:14.019Z,5.62
2017-10-11T04:37:41.932Z,6.60
2017-10-11T04:40:09.419Z,5.70
2017-10-11T04:42:36.979Z,5.75
2017-10-11T04:45:04.474Z,9.00
2017-10-11T04:47:31.991Z,7.35
2017-10-11T04:49:59.499Z,6.53
2017-10-11T04:52:27.012Z,5.90
2017-10-11T04:54:54.503Z,5.60
2017-10-11T04:57:22.402Z,7.30
2017-10-11T04:59:49.901Z,5.53
2017-10-11T05:02:17.818Z,7.25
2017-10-11T05:04:45.303Z,6.32
2017-10-11T05:07:13.640Z,5.95
2017-10-11T05:09:41.747Z,5.70
2017-10-11T05:12:11.289Z,7.50
2017-10-11T05:14:38.766Z,6.97
2017-10-11T05:17:06.422Z,6.15
2017-10-11T05:19:35.250Z,5.35
2017-10-11T05:22:02.760Z,5.82
2017-10-11T05:24:30.646Z,5.18
2017-10-11T05:26:58.178Z,5.40
2017-10-11T05:29:25.677Z,4.85
2017-10-11T05:31:53.207Z,7.05
2017-10-11T05:34:22.048Z,4.32
2017-10-11T05:36:49.698Z,4.72
2017-10-11T05:39:17.183Z,5.35
2017-10-11T05:41:44.691Z,4.85
2017-10-11T05:44:12.193Z,5.22
2017-10-11T05:46:39.704Z,6.00
2017-10-11T05:49:08.423Z,4.68
2017-10-11T05:51:35.940Z,5.75
2017-10-11T05:54:04.465Z,5.87
2017-10-11T05:56:31.987Z,4.93
2017-10-11T05:58:59.870Z,6.85
2017-10-11T06:01:27.399Z,7.90
2017-10-11T06:03:55.300Z,12.37
2017-10-11T06:06:22.783Z,6.30
2017-10-11T06:08:50.291Z,6.95
2017-10-11T06:11:18.171Z,7.62
2017-10-11T06:13:45.696Z,8.95
2017-10-11T06:16:13.220Z,7.10
2017-10-11T06:18:42.695Z,6.95
2017-10-11T06:21:10.225Z,8.65
2017-10-11T06:23:37.735Z,5.75
2017-10-11T06:26:05.232Z,7.35
2017-10-11T06:28:32.767Z,5.53
2017-10-11T06:31:00.268Z,7.50
2017-10-11T06:33:27.791Z,6.55
2017-10-11T06:35:55.278Z,5.78
2017-10-11T06:38:25.156Z,6.35
2017-10-11T06:40:52.638Z,5.87
2017-10-11T06:43:20.152Z,6.60
2017-10-11T06:45:47.655Z,9.52
2017-10-11T06:48:15.580Z,6.28
2017-10-11T06:50:44.054Z,9.13
2017-10-11T06:53:11.570Z,6.70
2017-10-11T06:55:39.088Z,5.95
2017-10-11T06:58:06.606Z,7.18
2017-10-11T07:00:34.493Z,5.78
2017-10-11T07:03:06.027Z,6.90
2017-10-11T07:05:34.871Z,16.62
2017-10-11T07:08:02.391Z,5.80
2017-10-11T07:10:29.882Z,9.15
2017-10-11T07:12:57.375Z,9.13
2017-10-11T07:15:25.285Z,8.15
2017-10-11T07:17:52.835Z,7.93
2017-10-11T07:20:20.359Z,5.62
2017-10-11T07:22:47.851Z,8.35
2017-10-11T07:25:15.343Z,5.82
2017-10-11T07:27:44.791Z,11.25
2017-10-11T07:30:12.692Z,6.65
2017-10-11T07:32:40.200Z,7.90
2017-10-11T07:35:08.275Z,5.87
2017-10-11T07:37:35.778Z,8.02
2017-10-11T07:40:05.285Z,7.62
2017-10-11T07:42:33.127Z,6.60
2017-10-11T07:45:01.439Z,6.28
2017-10-11T07:47:28.945Z,6.45
2017-10-11T07:49:56.831Z,5.75
2017-10-11T07:52:25.339Z,6.50
2017-10-11T07:54:52.853Z,5.97
2017-10-11T07:57:20.738Z,4.65
2017-10-11T07:59:48.280Z,6.07
2017-10-11T08:02:16.166Z,5.93
2017-10-11T08:04:43.680Z,5.57
2017-10-11T08:07:11.171Z,5.97
2017-10-11T08:09:39.079Z,3.58
2017-10-11T08:12:06.609Z,5.70
2017-10-11T08:14:34.121Z,4.93
2017-10-11T08:17:01.639Z,4.25
2017-10-11T08:19:29.133Z,5.00
2017-10-11T08:21:56.627Z,25.03
2017-10-11T08:24:26.154Z,5.03
2017-10-11T08:26:55.392Z,5.23
2017-10-11T08:29:23.235Z,5.10
2017-10-11T08:31:52.915Z,5.75
2017-10-11T08:34:20.420Z,5.10
2017-10-11T08:36:49.879Z,4.78
2017-10-11T08:39:19.307Z,7.03
2017-10-11T08:41:46.814Z,4.80
2017-10-11T08:44:14.299Z,4.67
2017-10-11T08:46:42.185Z,4.10
2017-10-11T08:49:09.715Z,4.90
2017-10-11T08:51:37.659Z,5.10
2017-10-11T08:54:05.194Z,4.60
2017-10-11T08:56:32.696Z,4.40
2017-10-11T08:59:00.591Z,4.12
2017-10-11T09:01:28.675Z,3.57
2017-10-11T09:03:56.215Z,3.65
2017-10-11T09:06:25.443Z,4.23
2017-10-11T09:08:54.955Z,4.37
2017-10-11T09:11:23.146Z,5.17
2017-10-11T09:13:50.638Z,3.10
2017-10-11T09:16:18.535Z,4.50
2017-10-11T09:18:46.938Z,6.27
2017-10-11T09:21:14.459Z,3.83
2017-10-11T09:23:42.870Z,3.58
2017-10-11T09:26:11.312Z,3.90
2017-10-11T09:28:39.055Z,3.37
2017-10-11T09:31:06.535Z,3.30
2017-10-11T09:33:34.042Z,3.22
2017-10-11T09:36:01.532Z,3.17
2017-10-11T09:38:30.032Z,2.92
2017-10-11T09:40:57.932Z,3.17
2017-10-11T09:43:25.816Z,3.40
2017-10-11T09:45:53.323Z,2.73
2017-10-11T09:48:21.227Z,6.70
2017-10-11T09:50:50.472Z,5.05
2017-10-11T09:53:19.283Z,2.70
2017-10-11T09:55:46.774Z,3.10
2017-10-11T09:58:14.819Z,2.95
2017-10-11T10:00:42.396Z,2.77
2017-10-11T10:03:10.489Z,3.30
2017-10-11T10:05:46.218Z,3.07
2017-10-11T10:08:13.713Z,3.80
2017-10-11T10:10:41.217Z,4.50
2017-10-11T10:13:08.711Z,4.80
2017-10-11T10:15:36.232Z,3.60
2017-10-11T10:18:03.748Z,2.87
2017-10-11T10:20:31.297Z,2.57
2017-10-11T10:22:58.814Z,2.00
2017-10-11T10:25:26.309Z,3.20
2017-10-11T10:27:53.796Z,3.90
2017-10-11T10:30:21.706Z,2.50
2017-10-11T10:32:49.198Z,3.10
2017-10-11T10:37:49.026Z,2.70
2017-10-11T10:40:17.279Z,3.80
2017-10-11T10:42:44.780Z,2.50
2017-10-11T10:45:12.679Z,1.50
2017-10-11T10:47:40.193Z,1.43
2017-10-11T10:50:07.695Z,2.00
2017-10-11T10:52:35.195Z,2.07
2017-10-11T10:55:02.683Z,2.30
2017-10-11T10:57:30.575Z,1.60
2017-10-11T10:59:59.007Z,1.30
2017-10-11T11:02:26.520Z,2.10
2017-10-11T11:04:56.884Z,1.70
2017-10-11T11:07:24.370Z,1.75
2017-10-11T11:09:51.853Z,1.40
2017-10-11T11:12:19.358Z,1.10
2017-10-11T11:14:49.289Z,1.50
2017-10-11T11:17:17.720Z,2.20
2017-10-11T11:19:45.205Z,1.10
2017-10-11T11:22:14.477Z,1.57
2017-10-11T11:24:41.996Z,1.27
2017-10-11T11:27:09.526Z,1.40
2017-10-11T11:29:37.027Z,1.93
2017-10-11T11:32:04.900Z,1.67
2017-10-11T11:34:32.388Z,1.30
2017-10-11T11:36:59.907Z,1.93
2017-10-11T11:39:27.792Z,2.33
2017-10-11T11:41:55.282Z,1.47
2017-10-11T11:44:23.715Z,1.63
2017-10-11T11:46:52.499Z,2.23
2017-10-11T11:49:20.396Z,2.17
2017-10-11T11:51:48.795Z,2.40
2017-10-11T11:54:16.298Z,2.30
2017-10-11T11:56:44.220Z,1.83
2017-10-11T11:59:11.711Z,1.70
2017-10-11T12:01:39.221Z,2.27
2017-10-11T12:04:06.706Z,1.20
2017-10-11T12:06:36.184Z,2.03
2017-10-11T12:09:03.675Z,1.40
2017-10-11T12:11:31.185Z,2.43
2017-10-11T12:13:58.684Z,1.85
2017-10-11T12:16:27.824Z,2.03
2017-10-11T12:18:55.706Z,2.03
2017-10-11T12:21:24.768Z,1.40
2017-10-11T12:23:52.260Z,1.40
2017-10-11T12:26:19.776Z,1.70
2017-10-11T12:28:47.267Z,1.90
2017-10-11T12:31:15.168Z,1.20
2017-10-11T12:33:42.683Z,2.50
2017-10-11T12:36:10.580Z,1.47
2017-10-11T12:38:38.573Z,1.43
2017-10-11T12:41:06.108Z,1.70
2017-10-11T12:43:33.884Z,2.07
2017-10-11T12:46:03.438Z,1.80
2017-10-11T12:48:30.968Z,1.50
2017-10-11T12:50:59.887Z,1.90
2017-10-11T12:53:31.875Z,1.40
2017-10-11T13:59:11.987Z,2.07
2017-10-11T14:01:40.192Z,1.60
2017-10-11T14:04:10.058Z,2.30
2017-10-11T14:06:37.572Z,1.53
2017-10-11T14:09:06.047Z,1.10
2017-10-11T14:11:34.447Z,1.40
2017-10-11T14:14:02.379Z,1.03
2017-10-11T14:16:29.868Z,2.55
2017-10-11T14:18:59.409Z,1.43
2017-10-11T14:21:26.891Z,1.53
2017-10-11T14:23:54.987Z,1.43
2017-10-11T14:26:23.255Z,2.03
2017-10-11T14:28:51.547Z,1.90
2017-10-11T14:31:19.955Z,1.97
2017-10-11T14:33:47.460Z,1.43
2017-10-11T14:36:14.976Z,1.77
2017-10-11T14:38:44.703Z,1.93
2017-10-11T14:41:14.107Z,1.37
2017-10-11T14:43:41.758Z,2.00
2017-10-11T14:46:09.250Z,1.53
2017-10-11T14:48:36.755Z,1.63
2017-10-11T14:51:06.234Z,2.13
2017-10-11T14:53:34.369Z,1.83
2017-10-11T14:56:01.852Z,1.50
2017-10-11T14:58:29.379Z,1.13
2017-10-11T15:00:56.868Z,3.07
2017-10-11T15:03:24.376Z,3.27
2017-10-11T15:05:51.882Z,1.73
2017-10-11T15:08:21.737Z,1.40
2017-10-11T15:10:49.238Z,1.30
2017-10-11T15:13:16.743Z,1.60
2017-10-11T15:15:45.119Z,3.73
2017-10-11T15:18:12.635Z,2.65
2017-10-11T15:20:40.752Z,2.13
2017-10-11T15:23:08.631Z,2.13
2017-10-11T15:25:36.143Z,1.20
2017-10-11T15:28:04.587Z,1.67
2017-10-11T15:30:32.087Z,1.60
2017-10-11T15:32:59.579Z,1.53
2017-10-11T15:35:27.470Z,1.83
2017-10-11T15:37:56.327Z,1.50
2017-10-11T15:40:25.179Z,1.50
2017-10-11T15:42:52.670Z,1.77
2017-10-11T15:45:20.164Z,2.30
2017-10-11T15:47:47.647Z,1.47
2017-10-11T15:50:15.154Z,1.77
2017-10-11T15:52:43.148Z,1.73
2017-10-11T15:55:10.651Z,1.60
2017-10-11T15:57:38.156Z,1.67
2017-10-11T16:00:06.592Z,1.00
2017-10-11T16:02:35.328Z,2.50
2017-10-11T16:05:02.847Z,1.30
2017-10-11T16:07:31.833Z,1.30
2017-10-11T16:09:59.344Z,1.30
2017-10-11T16:12:26.831Z,1.10
2017-10-11T16:14:54.317Z,1.50
2017-10-11T16:17:21.822Z,1.37
2017-10-11T16:19:49.359Z,1.30
2017-10-11T16:22:17.596Z,1.30
2017-10-11T16:24:45.911Z,0.80
2017-10-11T16:27:13.783Z,1.27
2017-10-11T16:29:41.311Z,1.80
2017-10-11T16:32:08.791Z,5.03
2017-10-11T16:34:36.550Z,1.27
2017-10-11T16:37:04.524Z,1.33
2017-10-11T16:39:32.857Z,1.10
2017-10-11T16:42:00.335Z,1.10
2017-10-11T16:44:28.128Z,1.10
2017-10-11T16:46:56.568Z,1.30
2017-10-11T16:49:27.022Z,1.07
2017-10-11T16:51:55.870Z,0.90
2017-10-11T16:54:23.366Z,1.47
2017-10-11T16:56:51.273Z,1.35
2017-10-11T16:59:18.768Z,1.85
2017-10-11T17:01:46.263Z,1.73
2017-10-11T17:04:14.167Z,4.00
2017-10-11T17:06:41.667Z,1.97
2017-10-11T17:09:12.101Z,4.00
2017-10-11T17:11:39.982Z,1.53
2017-10-11T17:14:07.483Z,1.17
2017-10-11T17:16:34.976Z,1.00
2017-10-11T17:19:02.463Z,1.50
2017-10-11T17:21:30.375Z,1.00
2017-10-11T17:23:57.870Z,0.80
2017-10-11T17:26:25.747Z,1.23
2017-10-11T17:28:53.647Z,1.10
2017-10-11T17:31:21.143Z,1.37
2017-10-11T17:33:48.664Z,1.07
2017-10-11T17:36:16.547Z,1.30
2017-10-11T17:38:44.065Z,2.70
2017-10-11T17:41:11.580Z,2.60
2017-10-11T17:43:39.060Z,1.53
2017-10-11T17:46:06.545Z,2.23
2017-10-11T17:48:34.051Z,1.73
2017-10-11T17:51:02.481Z,1.93
2017-10-11T17:53:29.992Z,1.83
2017-10-11T17:55:57.470Z,2.10
2017-10-11T17:58:26.926Z,1.97
2017-10-11T18:00:54.427Z,1.20
2017-10-11T18:03:22.631Z,1.20
2017-10-11T18:05:50.503Z,1.90
2017-10-11T18:08:20.874Z,2.20
2017-10-11T18:10:48.382Z,2.10
2017-10-11T18:13:17.275Z,2.07
2017-10-11T18:15:46.300Z,2.70
2017-10-11T18:18:13.788Z,1.60
2017-10-11T18:20:42.135Z,1.70
2017-10-11T18:23:11.331Z,1.90
2017-10-11T18:25:39.185Z,2.30
2017-10-11T18:28:06.687Z,1.77
2017-10-11T18:30:34.517Z,2.00
2017-10-11T18:33:02.567Z,1.50
2017-10-11T18:35:30.107Z,1.87
2017-10-11T18:37:58.327Z,2.37
2017-10-11T18:40:26.767Z,1.83
2017-10-11T18:42:55.481Z,1.80
2017-10-11T18:45:23.010Z,1.60
2017-10-11T18:47:50.940Z,1.20
2017-10-11T18:50:18.747Z,1.20
2017-10-11T18:52:48.465Z,1.20
2017-10-11T18:55:17.183Z,1.87
2017-10-11T18:57:44.751Z,2.67
2017-10-11T19:00:12.259Z,2.40
2017-10-11T19:02:39.817Z,2.27
2017-10-11T19:05:07.349Z,2.13
2017-10-11T19:07:34.915Z,2.20
2017-10-11T19:10:03.382Z,1.93
2017-10-11T19:12:30.940Z,2.00
2017-10-11T19:14:58.478Z,2.10
2017-10-11T19:17:26.899Z,3.20
2017-10-11T19:19:55.744Z,4.45
2017-10-11T19:22:23.316Z,5.63
2017-10-11T19:24:51.518Z,4.43
2017-10-11T19:27:19.053Z,5.13
2017-10-11T19:29:47.304Z,5.60
2017-10-11T19:32:14.828Z,7.40
2017-10-11T19:34:43.520Z,8.97
2017-10-11T19:37:11.038Z,4.57
2017-10-11T19:39:38.553Z,4.12
2017-10-11T19:42:06.768Z,3.30
2017-10-11T19:44:34.286Z,4.83
2017-10-11T19:47:02.855Z,3.92
2017-10-11T19:49:31.327Z,5.93
2017-10-11T19:51:59.245Z,6.20
2017-10-11T19:54:26.827Z,5.03
2017-10-11T19:56:54.353Z,4.10
2017-10-11T19:59:21.909Z,3.67
2017-10-11T20:01:49.462Z,3.00
2017-10-11T20:04:17.047Z,2.60
2017-10-11T20:06:44.585Z,3.40
2017-10-11T20:09:12.303Z,3.10
2017-10-11T20:11:41.035Z,3.90
2017-10-11T20:14:09.282Z,3.00
2017-10-11T20:16:37.844Z,2.67
2017-10-11T20:19:05.368Z,2.85
2017-10-11T20:21:32.877Z,3.00
2017-10-11T20:24:00.803Z,3.00
2017-10-11T20:26:28.357Z,2.10
2017-10-11T20:28:55.903Z,2.22
2017-10-11T20:31:23.428Z,2.10
2017-10-11T20:33:51.892Z,1.95
2017-10-11T20:36:19.433Z,3.05
2017-10-11T20:38:47.243Z,2.65
2017-10-11T20:41:14.760Z,1.93
2017-10-11T20:43:42.277Z,2.80
2017-10-11T20:46:10.736Z,1.83
2017-10-11T20:48:38.308Z,1.87
2017-10-11T20:51:07.045Z,1.40
2017-10-11T20:53:34.540Z,2.37
2017-10-11T20:56:06.436Z,1.93
2017-10-11T20:58:33.947Z,2.10
2017-10-11T21:01:01.877Z,4.50
2017-10-11T21:03:29.422Z,2.17
2017-10-11T21:05:56.926Z,2.00
2017-10-11T21:08:26.390Z,3.33
2017-10-11T21:10:54.909Z,2.03
2017-10-11T21:13:22.519Z,1.43
2017-10-11T21:15:50.079Z,1.67
2017-10-11T21:18:17.882Z,2.20
2017-10-11T21:20:45.440Z,2.47
2017-10-11T21:23:12.986Z,3.25
2017-10-11T21:25:43.027Z,2.05
2017-10-11T21:28:10.967Z,2.25
2017-10-11T21:30:39.110Z,2.33
2017-10-11T21:33:08.643Z,2.37
2017-10-11T21:35:36.158Z,2.17
2017-10-11T21:38:03.683Z,1.70
2017-10-11T21:40:31.671Z,3.90
2017-10-11T21:42:59.616Z,5.05
2017-10-11T21:45:27.130Z,2.27
2017-10-11T21:47:54.679Z,3.35
2017-10-11T21:50:23.227Z,2.27
2017-10-11T21:52:51.147Z,2.87
2017-10-11T21:55:18.668Z,2.70
2017-10-11T21:57:49.216Z,2.62
2017-10-11T22:00:16.758Z,2.60
2017-10-11T22:02:44.680Z,2.58
2017-10-11T22:05:12.199Z,3.00
2017-10-11T22:07:43.313Z,2.90
2017-10-11T22:10:11.578Z,2.57
2017-10-11T22:12:39.103Z,2.60
2017-10-11T22:15:06.659Z,3.50
2017-10-11T22:17:34.206Z,2.92
2017-10-11T22:20:01.746Z,2.75
2017-10-11T22:22:29.280Z,2.62
2017-10-11T22:24:56.801Z,2.55
2017-10-11T22:27:24.381Z,2.97
2017-10-11T22:29:52.880Z,2.20
2017-10-11T22:32:20.413Z,3.10
2017-10-11T22:34:47.983Z,3.87
2017-10-11T22:37:15.498Z,2.20
2017-10-11T22:39:43.023Z,5.22
2017-10-11T22:42:12.939Z,2.35
2017-10-11T22:44:40.878Z,2.33
2017-10-11T22:47:08.432Z,3.00
2017-10-11T22:49:35.966Z,3.65
2017-10-11T22:52:03.571Z,2.67
2017-10-11T22:54:31.098Z,3.10
2017-10-11T22:56:58.623Z,3.65
2017-10-11T22:59:26.527Z,2.65
2017-10-11T23:01:55.722Z,3.75
2017-10-11T23:04:23.265Z,3.33
2017-10-11T23:06:50.824Z,3.95
2017-10-11T23:09:18.363Z,3.00
2017-10-11T23:11:46.267Z,3.28
2017-10-11T23:14:13.778Z,3.05
2017-10-11T23:16:41.728Z,3.28
2017-10-11T23:19:09.243Z,2.30
2017-10-11T23:21:36.801Z,2.40
2017-10-11T23:24:05.446Z,2.40
2017-10-11T23:26:34.778Z,3.70
2017-10-11T23:29:03.889Z,3.35
2017-10-11T23:31:33.323Z,3.70
2017-10-11T23:34:00.836Z,5.20
2017-10-11T23:36:28.382Z,2.72
2017-10-11T23:38:56.274Z,3.22
2017-10-11T23:41:23.818Z,4.00
2017-10-11T23:43:51.339Z,4.30
2017-10-11T23:46:18.813Z,3.58
2017-10-11T23:48:47.319Z,2.90
2017-10-11T23:51:14.818Z,4.25
2017-10-11T23:53:42.316Z,4.20
2017-10-11T23:56:09.835Z,8.02
2017-10-11T23:58:37.489Z,3.30
